Niles, Illinois
Current Conditions -  °F | °C
As of 8:51 PM on Thursday 18 Dec 2014 (Local Time) from KORD Reporting Station
Overcast Overcast  
Wind Chill: 22°   Ceiling: 3200
Heat Index: 28°   Visibility: 10mi
Dew Point: 20°   Wind: 6mph
Humidity: 72%   Direction: 310°NW
Pressure: 30.25"   Gusts: NA
Location:  42.02°N, 87.8°W
Report Text: KORD 190251Z 31005KT 10SM OVC032 M02/M07 A3025 RMK AO2 SLP252 T10221067 50003
Loading
Personal Weather Stations






























Interactive Weather Map New forecast layout! Learn more

10-Day Weather Forecast

Advertisements
Track Severe Weather on mobile